createdAt,value
2017-09-21T00:00:53.646Z,11.52
2017-09-21T00:01:55.062Z,11.71
2017-09-21T00:02:56.481Z,11.57
2017-09-21T00:03:57.895Z,11.53
2017-09-21T00:04:59.323Z,11.72
2017-09-21T00:06:00.750Z,11.70
2017-09-21T00:07:02.176Z,11.82
2017-09-21T00:08:03.590Z,11.64
2017-09-21T00:09:05.012Z,11.74
2017-09-21T00:10:06.427Z,11.75
2017-09-21T00:11:07.898Z,11.59
2017-09-21T00:12:09.315Z,11.50
2017-09-21T00:13:10.731Z,11.53
2017-09-21T00:14:12.158Z,11.62
2017-09-21T00:15:13.572Z,11.64
2017-09-21T00:16:17.105Z,11.65
2017-09-21T00:17:18.528Z,11.67
2017-09-21T00:18:19.964Z,11.75
2017-09-21T00:19:21.380Z,11.61
2017-09-21T00:20:22.883Z,11.74
2017-09-21T00:21:24.298Z,11.61
2017-09-21T00:22:25.719Z,11.78
2017-09-21T00:23:27.130Z,11.77
2017-09-21T00:24:28.541Z,11.57
2017-09-21T00:25:29.967Z,11.74
2017-09-21T00:26:31.390Z,11.56
2017-09-21T00:27:32.838Z,11.72
2017-09-21T00:28:34.260Z,11.80
2017-09-21T00:29:35.673Z,11.78
2017-09-21T00:30:37.262Z,11.90
2017-09-21T00:31:38.708Z,11.78
2017-09-21T00:32:40.120Z,11.71
2017-09-21T00:33:41.751Z,11.74
2017-09-21T00:34:43.168Z,11.85
2017-09-21T00:35:44.592Z,11.78
2017-09-21T00:36:46.004Z,11.61
2017-09-21T00:37:47.420Z,11.72
2017-09-21T00:38:48.830Z,11.65
2017-09-21T00:39:50.253Z,11.74
2017-09-21T00:40:51.672Z,11.75
2017-09-21T00:41:53.092Z,11.61
2017-09-21T00:42:54.504Z,11.61
2017-09-21T00:43:55.922Z,11.59
2017-09-21T00:44:57.336Z,11.57
2017-09-21T00:45:58.759Z,11.75
2017-09-21T00:47:00.184Z,11.78
2017-09-21T00:48:01.603Z,11.75
2017-09-21T00:49:03.024Z,11.49
2017-09-21T00:50:04.445Z,11.52
2017-09-21T00:51:05.859Z,11.61
2017-09-21T00:52:07.274Z,11.64
2017-09-21T00:53:08.687Z,11.75
2017-09-21T00:54:10.112Z,11.59
2017-09-21T00:55:11.524Z,11.77
2017-09-21T00:56:12.942Z,11.85
2017-09-21T00:57:14.362Z,11.74
2017-09-21T00:58:15.777Z,11.78
2017-09-21T00:59:17.202Z,11.75
2017-09-21T01:00:18.616Z,11.52
2017-09-21T01:01:20.034Z,11.50
2017-09-21T01:02:21.450Z,11.39
2017-09-21T01:03:22.871Z,11.62
2017-09-21T01:04:24.283Z,11.44
2017-09-21T01:05:25.699Z,11.50
2017-09-21T01:06:27.115Z,11.64
2017-09-21T01:07:28.548Z,11.72
2017-09-21T01:08:29.944Z,11.65
2017-09-21T01:09:31.359Z,11.77
2017-09-21T01:10:32.778Z,11.78
2017-09-21T01:11:34.194Z,11.61
2017-09-21T01:12:35.610Z,11.64
2017-09-21T01:13:37.028Z,11.47
2017-09-21T01:14:38.454Z,11.52
2017-09-21T01:15:39.870Z,11.52
2017-09-21T01:16:41.299Z,11.36
2017-09-21T01:17:42.713Z,11.41
2017-09-21T01:18:44.133Z,11.36
2017-09-21T01:19:45.549Z,11.28
2017-09-21T01:20:46.968Z,11.24
2017-09-21T01:21:48.387Z,11.11
2017-09-21T01:22:49.803Z,11.17
2017-09-21T01:23:51.223Z,11.24
2017-09-21T01:24:52.643Z,11.32
2017-09-21T01:25:54.069Z,11.28
2017-09-21T01:26:55.481Z,11.32
2017-09-21T01:27:56.899Z,11.29
2017-09-21T01:28:58.318Z,11.34
2017-09-21T01:29:59.735Z,11.29
2017-09-21T01:31:01.152Z,11.28
2017-09-21T01:32:02.585Z,11.31
2017-09-21T01:33:04.004Z,11.35
2017-09-21T01:34:05.419Z,11.50
2017-09-21T01:35:06.837Z,11.52
2017-09-21T01:36:08.255Z,11.54
2017-09-21T01:37:09.670Z,11.50
2017-09-21T01:38:11.090Z,11.56
2017-09-21T01:39:12.517Z,11.61
2017-09-21T01:40:14.065Z,11.64
2017-09-21T01:41:15.479Z,11.61
2017-09-21T01:42:16.904Z,11.43
2017-09-21T01:43:18.322Z,11.21
2017-09-21T01:44:19.740Z,11.28
2017-09-21T01:45:21.152Z,11.14
2017-09-21T01:46:22.574Z,11.43
2017-09-21T01:47:23.995Z,11.41
2017-09-21T01:48:25.423Z,11.57
2017-09-21T01:49:26.833Z,11.67
2017-09-21T01:50:28.251Z,11.46
2017-09-21T01:51:29.667Z,11.36
2017-09-21T01:52:31.087Z,11.17
2017-09-21T01:53:32.550Z,11.13
2017-09-21T01:54:33.967Z,11.17
2017-09-21T01:55:35.381Z,11.16
2017-09-21T01:56:36.800Z,11.29
2017-09-21T01:57:38.216Z,11.17
2017-09-21T01:58:39.638Z,11.14
2017-09-21T01:59:41.055Z,11.16
2017-09-21T02:00:42.481Z,11.14
2017-09-21T02:01:43.895Z,11.14
2017-09-21T02:02:45.313Z,11.11
2017-09-21T02:03:46.723Z,11.17
2017-09-21T02:04:48.141Z,11.03
2017-09-21T02:05:49.557Z,10.86
2017-09-21T02:06:50.971Z,10.91
2017-09-21T02:07:52.385Z,10.81
2017-09-21T02:08:53.809Z,10.86
2017-09-21T02:09:55.231Z,10.98
2017-09-21T02:10:56.645Z,10.80
2017-09-21T02:11:58.061Z,10.63
2017-09-21T02:12:59.475Z,10.58
2017-09-21T02:14:00.883Z,10.81
2017-09-21T02:15:02.305Z,10.81
2017-09-21T02:16:03.720Z,11.06
2017-09-21T02:17:05.149Z,10.98
2017-09-21T02:18:06.567Z,11.14
2017-09-21T02:19:07.980Z,11.14
2017-09-21T02:20:09.391Z,11.24
2017-09-21T02:21:10.823Z,11.13
2017-09-21T02:22:12.235Z,11.07
2017-09-21T02:23:13.653Z,11.16
2017-09-21T02:24:15.063Z,11.03
2017-09-21T02:25:16.479Z,10.78
2017-09-21T02:26:17.891Z,10.63
2017-09-21T02:27:19.311Z,10.73
2017-09-21T02:28:20.718Z,10.73
2017-09-21T02:29:22.187Z,10.65
2017-09-21T02:30:23.601Z,10.78
2017-09-21T02:31:25.015Z,10.96
2017-09-21T02:32:26.434Z,11.10
2017-09-21T02:33:27.862Z,10.98
2017-09-21T02:34:29.276Z,11.11
2017-09-21T02:35:30.703Z,11.03
2017-09-21T02:36:32.122Z,10.92
2017-09-21T02:37:33.566Z,10.99
2017-09-21T02:38:34.981Z,11.07
2017-09-21T02:39:36.391Z,11.09
2017-09-21T02:40:37.810Z,11.07
2017-09-21T02:41:39.234Z,10.60
2017-09-21T02:42:40.656Z,10.70
2017-09-21T02:43:42.072Z,10.53
2017-09-21T02:44:43.504Z,10.42
2017-09-21T02:45:44.917Z,10.34
2017-09-21T02:46:46.329Z,10.30
2017-09-21T02:47:47.754Z,10.25
2017-09-21T02:48:49.169Z,10.21
2017-09-21T02:49:50.584Z,10.25
2017-09-21T02:50:52.002Z,10.34
2017-09-21T02:51:53.425Z,10.28
2017-09-21T02:52:54.838Z,10.37
2017-09-21T02:53:56.255Z,10.34
2017-09-21T02:54:57.679Z,10.52
2017-09-21T02:55:59.093Z,10.63
2017-09-21T02:57:00.505Z,10.65
2017-09-21T02:58:01.925Z,10.66
2017-09-21T02:59:03.349Z,10.65
2017-09-21T03:00:04.782Z,10.66
2017-09-21T03:01:06.199Z,10.66
2017-09-21T03:02:07.615Z,10.70
2017-09-21T03:03:09.029Z,10.83
2017-09-21T03:04:10.454Z,10.80
2017-09-21T03:05:11.871Z,10.80
2017-09-21T03:06:13.288Z,10.80
2017-09-21T03:07:14.701Z,10.76
2017-09-21T03:08:16.118Z,10.77
2017-09-21T03:09:17.535Z,10.81
2017-09-21T03:10:18.950Z,10.95
2017-09-21T03:11:20.442Z,10.98
2017-09-21T03:12:21.898Z,11.10
2017-09-21T03:13:23.310Z,11.14
2017-09-21T03:14:24.725Z,11.14
2017-09-21T03:15:26.144Z,11.02
2017-09-21T03:16:27.562Z,10.78
2017-09-21T03:17:28.979Z,10.80
2017-09-21T03:18:30.392Z,11.02
2017-09-21T03:19:31.818Z,10.92
2017-09-21T03:20:33.229Z,10.91
2017-09-21T03:21:34.646Z,10.89
2017-09-21T03:22:36.062Z,10.96
2017-09-21T03:23:37.483Z,11.09
2017-09-21T03:24:38.902Z,10.91
2017-09-21T03:25:40.322Z,11.02
2017-09-21T03:26:41.732Z,10.92
2017-09-21T03:27:43.160Z,10.81
2017-09-21T03:28:44.576Z,10.92
2017-09-21T03:29:45.987Z,11.01
2017-09-21T03:30:47.397Z,10.91
2017-09-21T03:31:48.808Z,10.96
2017-09-21T03:32:50.232Z,10.76
2017-09-21T03:33:51.647Z,10.77
2017-09-21T03:34:53.073Z,10.95
2017-09-21T03:35:54.488Z,10.92
2017-09-21T03:36:55.906Z,10.98
2017-09-21T03:37:57.347Z,10.60
2017-09-21T03:38:58.755Z,10.53
2017-09-21T03:40:00.145Z,10.66
2017-09-21T03:41:01.566Z,10.73
2017-09-21T03:42:02.981Z,10.66
2017-09-21T03:43:04.388Z,10.65
2017-09-21T03:44:05.802Z,10.51
2017-09-21T03:45:07.228Z,10.62
2017-09-21T03:46:08.644Z,10.44
2017-09-21T03:47:10.066Z,10.55
2017-09-21T03:48:11.491Z,10.44
2017-09-21T03:49:12.910Z,10.53
2017-09-21T03:50:14.439Z,10.55
2017-09-21T03:51:15.862Z,10.71
2017-09-21T03:52:17.270Z,10.81
2017-09-21T03:53:18.691Z,10.74
2017-09-21T03:54:20.114Z,10.68
2017-09-21T03:55:21.527Z,10.70
2017-09-21T03:56:22.950Z,10.78
2017-09-21T03:57:24.363Z,10.89
2017-09-21T03:58:25.783Z,10.95
2017-09-21T03:59:27.195Z,10.98
2017-09-21T04:00:28.610Z,10.96
2017-09-21T04:01:30.027Z,11.01
2017-09-21T04:02:31.444Z,10.94
2017-09-21T04:03:32.889Z,10.89
2017-09-21T04:04:34.270Z,10.91
2017-09-21T04:05:35.678Z,10.78
2017-09-21T04:06:37.094Z,10.59
2017-09-21T04:07:38.511Z,10.59
2017-09-21T04:08:39.924Z,10.56
2017-09-21T04:09:41.340Z,10.77
2017-09-21T04:10:42.751Z,10.71
2017-09-21T04:11:44.167Z,10.68
2017-09-21T04:12:45.579Z,10.62
2017-09-21T04:13:47.002Z,10.55
2017-09-21T04:14:48.416Z,10.53
2017-09-21T04:15:49.826Z,10.77
2017-09-21T04:16:51.239Z,10.66
2017-09-21T04:17:52.658Z,10.56
2017-09-21T04:18:54.074Z,10.71
2017-09-21T04:19:55.491Z,10.80
2017-09-21T04:20:56.910Z,10.66
2017-09-21T04:21:58.319Z,10.53
2017-09-21T04:22:59.748Z,10.77
2017-09-21T04:24:01.169Z,10.81
2017-09-21T04:25:02.579Z,10.81
2017-09-21T04:26:04.003Z,10.71
2017-09-21T04:27:05.414Z,10.60
2017-09-21T04:28:06.827Z,10.77
2017-09-21T04:29:08.235Z,10.84
2017-09-21T04:30:09.650Z,10.78
2017-09-21T04:31:11.073Z,10.80
2017-09-21T04:32:12.492Z,10.68
2017-09-21T04:33:13.923Z,10.56
2017-09-21T04:34:15.339Z,10.44
2017-09-21T04:35:16.759Z,10.60
2017-09-21T04:36:18.174Z,10.70
2017-09-21T04:37:19.605Z,10.70
2017-09-21T04:38:21.026Z,10.78
2017-09-21T04:39:22.444Z,10.77
2017-09-21T04:40:23.867Z,10.84
2017-09-21T04:41:25.279Z,10.66
2017-09-21T04:42:26.696Z,10.55
2017-09-21T04:43:28.106Z,10.65
2017-09-21T04:44:29.564Z,10.62
2017-09-21T04:45:30.976Z,10.55
2017-09-21T04:46:32.403Z,10.53
2017-09-21T04:47:33.817Z,10.36
2017-09-21T04:48:35.230Z,10.46
2017-09-21T04:49:36.643Z,10.43
2017-09-21T04:50:38.059Z,10.59
2017-09-21T04:51:39.469Z,10.66
2017-09-21T04:52:40.919Z,10.43
2017-09-21T04:53:42.301Z,10.40
2017-09-21T04:54:43.723Z,10.42
2017-09-21T04:55:45.141Z,10.33
2017-09-21T04:56:46.560Z,10.52
2017-09-21T04:57:47.983Z,10.68
2017-09-21T04:58:49.409Z,10.63
2017-09-21T04:59:50.823Z,10.70
2017-09-21T05:00:52.238Z,10.68
2017-09-21T05:01:53.654Z,10.66
2017-09-21T05:02:55.072Z,10.63
2017-09-21T05:03:56.494Z,10.59
2017-09-21T05:04:57.906Z,10.76
2017-09-21T05:05:59.326Z,10.58
2017-09-21T05:07:00.741Z,10.46
2017-09-21T05:08:02.158Z,10.47
2017-09-21T05:09:03.573Z,10.58
2017-09-21T05:10:04.999Z,10.47
2017-09-21T05:11:06.428Z,10.53
2017-09-21T05:12:07.848Z,10.70
2017-09-21T05:13:09.258Z,10.66
2017-09-21T05:14:10.680Z,10.56
2017-09-21T05:15:12.101Z,10.43
2017-09-21T05:16:13.529Z,10.56
2017-09-21T05:17:14.936Z,10.63
2017-09-21T05:18:16.368Z,10.53
2017-09-21T05:19:17.786Z,10.60
2017-09-21T05:20:19.203Z,10.65
2017-09-21T05:21:20.616Z,10.39
2017-09-21T05:22:22.031Z,10.42
2017-09-21T05:23:23.449Z,10.37
2017-09-21T05:24:24.872Z,10.39
2017-09-21T05:25:26.288Z,10.60
2017-09-21T05:26:27.714Z,10.62
2017-09-21T05:27:29.133Z,10.60
2017-09-21T05:28:30.551Z,10.60
2017-09-21T05:29:31.967Z,10.58
2017-09-21T05:30:33.380Z,10.52
2017-09-21T05:31:34.799Z,10.33
2017-09-21T05:32:36.216Z,10.42
2017-09-21T05:33:37.633Z,10.44
2017-09-21T05:34:39.044Z,10.40
2017-09-21T05:35:40.462Z,10.42
2017-09-21T05:36:41.884Z,10.47
2017-09-21T05:37:43.323Z,10.33
2017-09-21T05:38:44.733Z,10.43
2017-09-21T05:39:46.144Z,10.52
2017-09-21T05:40:47.577Z,10.44
2017-09-21T05:41:48.988Z,10.33
2017-09-21T05:42:50.406Z,10.32
2017-09-21T05:43:51.826Z,10.43
2017-09-21T05:44:53.242Z,10.32
2017-09-21T05:45:54.664Z,10.40
2017-09-21T05:46:56.088Z,10.43
2017-09-21T05:47:57.532Z,10.51
2017-09-21T05:48:58.954Z,10.33
2017-09-21T05:50:00.382Z,10.24
2017-09-21T05:51:01.869Z,10.04
2017-09-21T05:52:03.284Z,10.07
2017-09-21T05:53:04.706Z,10.22
2017-09-21T05:54:06.127Z,10.24
2017-09-21T05:55:07.545Z,10.32
2017-09-21T05:56:08.963Z,10.37
2017-09-21T05:57:10.480Z,10.36
2017-09-21T05:58:11.904Z,10.51
2017-09-21T05:59:13.318Z,10.62
2017-09-21T06:00:14.733Z,10.62
2017-09-21T06:01:16.157Z,10.62
2017-09-21T06:02:17.577Z,10.63
2017-09-21T06:03:18.997Z,10.80
2017-09-21T06:04:20.422Z,10.83
2017-09-21T06:05:21.842Z,10.78
2017-09-21T06:06:23.269Z,10.94
2017-09-21T06:07:24.690Z,11.06
2017-09-21T06:08:26.113Z,11.06
2017-09-21T06:09:27.539Z,11.07
2017-09-21T06:10:28.949Z,11.17
2017-09-21T06:11:30.370Z,10.99
2017-09-21T06:12:31.785Z,11.02
2017-09-21T06:13:33.215Z,11.03
2017-09-21T06:14:34.633Z,10.94
2017-09-21T06:15:36.058Z,11.09
2017-09-21T06:16:37.479Z,11.10
2017-09-21T06:17:38.893Z,11.06
2017-09-21T06:18:40.320Z,11.11
2017-09-21T06:19:41.740Z,11.09
2017-09-21T06:20:43.164Z,11.13
2017-09-21T06:21:44.592Z,11.06
2017-09-21T06:22:46.004Z,11.06
2017-09-21T06:23:47.436Z,11.09
2017-09-21T06:24:48.847Z,11.13
2017-09-21T06:25:50.264Z,11.13
2017-09-21T06:26:51.686Z,11.19
2017-09-21T06:27:53.107Z,11.11
2017-09-21T06:28:54.523Z,11.16
2017-09-21T06:29:55.945Z,11.13
2017-09-21T06:30:57.359Z,11.07
2017-09-21T06:31:58.783Z,11.13
2017-09-21T06:33:00.201Z,11.19
2017-09-21T06:34:01.622Z,11.16
2017-09-21T06:35:03.044Z,11.38
2017-09-21T06:36:04.472Z,11.56
2017-09-21T06:37:05.900Z,11.53
2017-09-21T06:38:07.320Z,11.44
2017-09-21T06:39:08.741Z,11.44
2017-09-21T06:40:10.160Z,11.50
2017-09-21T06:41:11.584Z,11.53
2017-09-21T06:42:13.004Z,11.47
2017-09-21T06:43:14.425Z,11.36
2017-09-21T06:44:15.852Z,11.49
2017-09-21T06:45:17.283Z,11.64
2017-09-21T06:46:18.697Z,11.80
2017-09-21T06:47:20.119Z,11.97
2017-09-21T06:48:21.533Z,11.97
2017-09-21T06:49:22.951Z,12.04
2017-09-21T06:50:24.379Z,12.12
2017-09-21T06:51:25.810Z,12.12
2017-09-21T06:52:27.232Z,12.13
2017-09-21T06:53:28.651Z,12.13
2017-09-21T06:54:30.087Z,12.20
2017-09-21T06:55:31.514Z,12.33
2017-09-21T06:56:32.952Z,12.37
2017-09-21T06:57:34.376Z,12.33
2017-09-21T06:58:35.802Z,12.44
2017-09-21T06:59:37.232Z,12.48
2017-09-21T07:00:38.653Z,12.63
2017-09-21T07:01:40.074Z,12.74
2017-09-21T07:02:41.493Z,12.66
2017-09-21T07:03:42.923Z,12.70
2017-09-21T07:04:44.339Z,12.64
2017-09-21T07:05:45.769Z,12.77
2017-09-21T07:06:47.193Z,12.74
2017-09-21T07:07:48.614Z,12.89
2017-09-21T07:08:50.040Z,12.97
2017-09-21T07:09:51.470Z,12.99
2017-09-21T07:10:52.890Z,12.99
2017-09-21T07:11:54.310Z,12.97
2017-09-21T07:12:55.725Z,12.95
2017-09-21T07:13:57.147Z,13.11
2017-09-21T07:14:58.574Z,13.03
2017-09-21T07:15:59.998Z,12.96
2017-09-21T07:17:01.414Z,13.09
2017-09-21T07:18:02.879Z,13.11
2017-09-21T07:19:04.301Z,13.07
2017-09-21T07:20:05.722Z,13.07
2017-09-21T07:21:07.145Z,13.06
2017-09-21T07:22:08.565Z,13.12
2017-09-21T07:23:09.985Z,13.21
2017-09-21T07:24:11.406Z,13.22
2017-09-21T07:25:12.826Z,13.25
2017-09-21T07:26:14.248Z,13.38
2017-09-21T07:27:15.669Z,13.37
2017-09-21T07:28:17.089Z,13.56
2017-09-21T07:29:18.511Z,13.51
2017-09-21T07:30:19.939Z,13.40
2017-09-21T07:31:21.358Z,13.46
2017-09-21T07:32:22.779Z,13.52
2017-09-21T07:33:24.200Z,13.62
2017-09-21T07:34:25.629Z,13.58
2017-09-21T07:35:27.052Z,13.56
2017-09-21T07:36:28.579Z,13.51
2017-09-21T07:37:30.012Z,13.47
2017-09-21T07:38:31.436Z,13.51
2017-09-21T07:39:32.862Z,13.63
2017-09-21T07:40:34.290Z,13.56
2017-09-21T07:41:35.713Z,13.62
2017-09-21T07:42:37.130Z,13.69
2017-09-21T07:43:38.551Z,13.87
2017-09-21T07:44:39.991Z,13.83
2017-09-21T07:45:41.413Z,13.88
2017-09-21T07:46:42.837Z,14.02
2017-09-21T07:47:44.263Z,14.16
2017-09-21T07:48:45.682Z,14.29
2017-09-21T07:49:47.104Z,14.25
2017-09-21T07:50:48.526Z,14.19
2017-09-21T07:51:49.949Z,14.24
2017-09-21T07:52:51.364Z,14.43
2017-09-21T07:53:52.787Z,14.34
2017-09-21T07:55:01.314Z,14.47
2017-09-21T07:56:07.992Z,14.38
2017-09-21T07:57:17.830Z,14.39
2017-09-21T07:58:29.599Z,14.53
2017-09-21T07:59:37.630Z,14.56
2017-09-21T08:00:39.058Z,14.81
2017-09-21T08:01:40.485Z,14.91
2017-09-21T08:02:41.908Z,14.90
2017-09-21T08:03:43.332Z,14.84
2017-09-21T08:04:44.752Z,14.72
2017-09-21T08:05:46.181Z,14.94
2017-09-21T08:06:47.605Z,14.84
2017-09-21T08:07:49.021Z,14.93
2017-09-21T08:08:50.444Z,15.03
2017-09-21T08:09:51.866Z,15.01
2017-09-21T08:10:53.283Z,14.99
2017-09-21T08:11:54.712Z,15.20
2017-09-21T08:12:56.134Z,15.23
2017-09-21T08:13:57.550Z,15.31
2017-09-21T08:14:58.971Z,15.19
2017-09-21T08:16:00.396Z,15.38
2017-09-21T08:17:01.812Z,15.26
2017-09-21T08:18:03.227Z,15.20
2017-09-21T08:19:04.655Z,15.43
2017-09-21T08:20:06.078Z,15.46
2017-09-21T08:21:07.497Z,15.45
2017-09-21T08:22:08.926Z,15.57
2017-09-21T08:23:10.344Z,15.57
2017-09-21T08:24:11.772Z,15.54
2017-09-21T08:25:13.204Z,15.67
2017-09-21T08:26:14.624Z,15.70
2017-09-21T08:27:16.050Z,15.79
2017-09-21T08:28:17.471Z,15.81
2017-09-21T08:29:18.900Z,15.76
2017-09-21T08:30:20.321Z,15.78
2017-09-21T08:31:21.753Z,15.93
2017-09-21T08:32:23.176Z,15.94
2017-09-21T08:33:24.597Z,15.97
2017-09-21T08:34:26.025Z,15.99
2017-09-21T08:35:27.446Z,15.94
2017-09-21T08:36:28.864Z,15.89
2017-09-21T08:37:30.292Z,16.04
2017-09-21T08:38:31.722Z,16.09
2017-09-21T08:39:33.148Z,16.06
2017-09-21T08:40:34.571Z,16.25
2017-09-21T08:41:35.996Z,16.23
2017-09-21T08:42:37.410Z,16.14
2017-09-21T08:43:38.829Z,16.27
2017-09-21T08:44:40.251Z,16.34
2017-09-21T08:45:41.670Z,16.35
2017-09-21T08:46:43.106Z,16.37
2017-09-21T08:47:44.532Z,16.49
2017-09-21T08:48:45.959Z,16.38
2017-09-21T08:49:47.374Z,16.45
2017-09-21T08:50:48.803Z,16.55
2017-09-21T08:51:50.221Z,16.56
2017-09-21T08:52:51.652Z,16.38
2017-09-21T08:53:53.074Z,16.45
2017-09-21T08:54:54.500Z,16.60
2017-09-21T08:55:55.935Z,16.49
2017-09-21T08:56:57.352Z,16.67
2017-09-21T08:57:58.776Z,16.85
2017-09-21T08:59:00.211Z,16.74
2017-09-21T09:00:01.637Z,17.03
2017-09-21T09:01:03.050Z,16.93
2017-09-21T09:02:04.490Z,16.95
2017-09-21T09:03:06.081Z,16.96
2017-09-21T09:04:07.508Z,16.99
2017-09-21T09:05:08.937Z,17.20
2017-09-21T09:06:10.377Z,17.22
2017-09-21T09:07:11.802Z,17.22
2017-09-21T09:08:13.227Z,17.20
2017-09-21T09:09:14.656Z,17.28
2017-09-21T09:10:16.092Z,17.23
2017-09-21T09:11:17.529Z,17.35
2017-09-21T09:12:18.950Z,17.36
2017-09-21T09:13:20.368Z,17.46
2017-09-21T09:14:21.796Z,17.36
2017-09-21T09:15:23.231Z,17.53
2017-09-21T09:16:24.651Z,17.57
2017-09-21T09:17:26.078Z,17.67
2017-09-21T09:18:27.505Z,17.76
2017-09-21T09:19:28.927Z,17.79
2017-09-21T09:20:30.348Z,17.81
2017-09-21T09:21:31.779Z,17.74
2017-09-21T09:22:33.206Z,17.87
2017-09-21T09:23:34.625Z,17.74
2017-09-21T09:24:36.051Z,17.69
2017-09-21T09:25:37.477Z,17.85
2017-09-21T09:26:38.897Z,17.99
2017-09-21T09:27:40.321Z,18.15
2017-09-21T09:28:41.752Z,17.95
2017-09-21T09:29:43.191Z,18.02
2017-09-21T09:30:44.621Z,17.99
2017-09-21T09:31:46.046Z,17.92
2017-09-21T09:32:47.469Z,17.89
2017-09-21T09:33:48.895Z,17.97
2017-09-21T09:34:50.324Z,18.27
2017-09-21T09:35:51.745Z,18.21
2017-09-21T09:36:53.176Z,18.34
2017-09-21T09:37:54.602Z,18.42
2017-09-21T09:38:56.025Z,18.31
2017-09-21T09:39:57.443Z,18.28
2017-09-21T09:40:58.869Z,18.40
2017-09-21T09:42:00.295Z,18.46
2017-09-21T09:43:01.715Z,18.40
2017-09-21T09:44:03.143Z,18.39
2017-09-21T09:45:04.563Z,18.34
2017-09-21T09:46:05.989Z,18.47
2017-09-21T09:47:07.421Z,18.70
2017-09-21T09:48:08.857Z,18.62
2017-09-21T09:49:10.284Z,18.58
2017-09-21T09:50:11.704Z,18.74
2017-09-21T09:51:13.144Z,18.76
2017-09-21T09:52:14.568Z,18.67
2017-09-21T09:53:15.993Z,18.65
2017-09-21T09:54:17.424Z,18.52
2017-09-21T09:55:18.860Z,18.40
2017-09-21T09:56:20.281Z,18.61
2017-09-21T09:57:21.715Z,18.54
2017-09-21T09:58:23.138Z,18.77
2017-09-21T09:59:24.567Z,18.92
2017-09-21T10:00:25.999Z,18.87
2017-09-21T10:01:27.426Z,18.73
2017-09-21T10:02:28.871Z,18.76
2017-09-21T10:03:30.304Z,18.91
2017-09-21T10:04:31.723Z,18.98
2017-09-21T10:05:33.148Z,18.98
2017-09-21T10:06:34.648Z,19.25
2017-09-21T10:07:36.073Z,19.17
2017-09-21T10:08:37.501Z,19.05
2017-09-21T10:09:38.932Z,18.99
2017-09-21T10:10:40.406Z,18.99
2017-09-21T10:11:41.825Z,18.83
2017-09-21T10:12:43.256Z,18.94
2017-09-21T10:13:44.697Z,19.11
2017-09-21T10:14:46.128Z,19.02
2017-09-21T10:15:47.559Z,19.31
2017-09-21T10:16:48.984Z,19.25
2017-09-21T10:17:50.454Z,19.42
2017-09-21T10:18:51.879Z,19.53
2017-09-21T10:19:53.315Z,19.35
2017-09-21T10:20:54.748Z,19.50
2017-09-21T10:21:56.229Z,19.78
2017-09-21T10:22:57.682Z,19.69
2017-09-21T10:23:59.104Z,19.73
2017-09-21T10:25:00.544Z,19.70
2017-09-21T10:26:01.972Z,19.61
2017-09-21T10:27:03.401Z,19.69
2017-09-21T10:28:04.816Z,19.79
2017-09-21T10:29:06.353Z,19.88
2017-09-21T10:30:07.801Z,20.06
2017-09-21T10:31:09.239Z,20.08
2017-09-21T10:32:10.669Z,20.05
2017-09-21T10:33:12.094Z,20.23
2017-09-21T10:34:13.527Z,20.41
2017-09-21T10:35:14.956Z,20.49
2017-09-21T10:36:16.390Z,20.65
2017-09-21T10:37:17.892Z,20.43
2017-09-21T10:38:19.316Z,20.33
2017-09-21T10:39:20.740Z,20.50
2017-09-21T10:40:22.182Z,20.21
2017-09-21T10:41:23.594Z,20.20
2017-09-21T10:42:25.024Z,20.64
2017-09-21T10:43:26.574Z,20.51
2017-09-21T10:44:28.017Z,20.54
2017-09-21T10:45:29.437Z,20.81
2017-09-21T10:46:30.872Z,20.61
2017-09-21T10:47:32.303Z,20.77
2017-09-21T10:48:33.737Z,21.06
2017-09-21T10:49:35.174Z,21.14
2017-09-21T10:50:36.606Z,21.36
2017-09-21T10:51:38.034Z,21.16
2017-09-21T10:52:39.466Z,21.44
2017-09-21T10:53:40.894Z,21.44
2017-09-21T10:54:42.438Z,21.46
2017-09-21T10:55:43.894Z,21.26
2017-09-21T10:56:45.325Z,21.16
2017-09-21T10:57:46.754Z,21.26
2017-09-21T10:58:48.191Z,21.26
2017-09-21T10:59:49.623Z,21.20
2017-09-21T11:00:51.056Z,20.96
2017-09-21T11:01:52.566Z,20.53
2017-09-21T11:02:53.998Z,20.39
2017-09-21T11:03:55.426Z,20.74
2017-09-21T11:04:56.856Z,20.81
2017-09-21T11:05:58.282Z,21.01
2017-09-21T11:06:59.709Z,21.19
2017-09-21T11:08:01.134Z,21.30
2017-09-21T11:09:02.574Z,20.96
2017-09-21T11:10:04.001Z,21.17
2017-09-21T11:11:05.430Z,21.01
2017-09-21T11:12:06.860Z,21.13
2017-09-21T11:13:08.365Z,21.46
2017-09-21T11:14:09.876Z,20.98
2017-09-21T11:15:11.304Z,21.23
2017-09-21T11:16:12.732Z,20.96
2017-09-21T11:17:14.163Z,20.66
2017-09-21T11:18:15.595Z,21.13
2017-09-21T11:19:17.025Z,21.48
2017-09-21T11:20:18.459Z,21.42
2017-09-21T11:21:19.893Z,21.67
2017-09-21T11:22:21.325Z,22.02
2017-09-21T11:23:22.754Z,21.81
2017-09-21T11:24:24.191Z,21.45
2017-09-21T11:25:25.616Z,21.41
2017-09-21T11:26:27.041Z,21.54
2017-09-21T11:27:28.467Z,21.83
2017-09-21T11:28:29.897Z,22.06
2017-09-21T11:29:31.319Z,21.44
2017-09-21T11:30:32.764Z,21.57
2017-09-21T11:31:34.197Z,21.78
2017-09-21T11:32:35.628Z,21.56
2017-09-21T11:33:37.064Z,21.67
2017-09-21T11:34:38.518Z,21.85
2017-09-21T11:35:39.950Z,22.12
2017-09-21T11:36:41.385Z,21.59
2017-09-21T11:37:42.810Z,21.39
2017-09-21T11:38:44.250Z,21.35
2017-09-21T11:39:45.680Z,21.38
2017-09-21T11:40:47.112Z,21.05
2017-09-21T11:41:48.541Z,20.76
2017-09-21T11:42:49.961Z,21.06
2017-09-21T11:43:51.397Z,21.17
2017-09-21T11:44:52.825Z,21.66
2017-09-21T11:45:54.257Z,21.78
2017-09-21T11:46:55.685Z,21.90
2017-09-21T11:47:57.108Z,22.09
2017-09-21T11:48:58.534Z,22.09
2017-09-21T11:49:59.967Z,21.74
2017-09-21T11:51:01.393Z,21.81
2017-09-21T11:52:02.822Z,22.19
2017-09-21T11:53:04.245Z,22.28
2017-09-21T11:54:05.681Z,22.10
2017-09-21T11:55:07.109Z,21.91
2017-09-21T11:56:08.533Z,21.85
2017-09-21T11:57:09.960Z,21.79
2017-09-21T11:58:11.873Z,21.75
2017-09-21T11:59:13.322Z,21.74
2017-09-21T12:00:14.744Z,21.98
2017-09-21T12:01:16.166Z,21.92
2017-09-21T12:02:17.597Z,21.87
2017-09-21T12:03:19.031Z,22.01
2017-09-21T12:04:20.463Z,21.83
2017-09-21T12:05:21.894Z,21.87
2017-09-21T12:06:23.344Z,21.83
2017-09-21T12:07:24.774Z,21.98
2017-09-21T12:08:26.205Z,21.94
2017-09-21T12:09:27.633Z,21.91
2017-09-21T12:10:29.069Z,22.19
2017-09-21T12:11:30.501Z,22.29
2017-09-21T12:12:31.931Z,22.38
2017-09-21T12:13:33.373Z,22.17
2017-09-21T12:14:34.802Z,22.01
2017-09-21T12:15:36.239Z,22.17
2017-09-21T12:16:37.674Z,22.14
2017-09-21T12:17:39.122Z,22.09
2017-09-21T12:18:40.612Z,21.97
2017-09-21T12:19:42.049Z,22.06
2017-09-21T12:20:43.469Z,22.27
2017-09-21T12:21:44.930Z,22.31
2017-09-21T12:22:46.333Z,22.41
2017-09-21T12:23:47.763Z,22.28
2017-09-21T12:24:49.202Z,22.22
2017-09-21T12:25:50.634Z,21.54
2017-09-21T12:26:52.070Z,22.09
2017-09-21T12:27:53.508Z,21.99
2017-09-21T12:28:54.933Z,22.20
2017-09-21T12:29:56.357Z,22.25
2017-09-21T12:30:57.821Z,22.25
2017-09-21T12:31:59.261Z,22.06
2017-09-21T12:33:00.692Z,21.59
2017-09-21T12:34:02.126Z,21.30
2017-09-21T12:35:03.551Z,21.16
2017-09-21T12:36:04.983Z,21.17
2017-09-21T12:37:06.414Z,20.65
2017-09-21T12:38:07.855Z,20.61
2017-09-21T12:39:09.290Z,20.62
2017-09-21T12:40:10.715Z,20.66
2017-09-21T12:41:12.158Z,20.81
2017-09-21T12:42:13.581Z,20.87
2017-09-21T12:43:15.024Z,20.66
2017-09-21T12:44:16.451Z,20.65
2017-09-21T12:45:17.916Z,20.96
2017-09-21T12:46:20.762Z,21.14
2017-09-21T12:47:22.193Z,21.30
2017-09-21T12:48:23.623Z,21.17
2017-09-21T12:49:25.053Z,20.90
2017-09-21T12:50:26.486Z,21.06
2017-09-21T12:51:27.962Z,20.98
2017-09-21T12:52:29.397Z,20.83
2017-09-21T12:53:30.837Z,21.39
2017-09-21T12:54:32.271Z,21.41
2017-09-21T12:55:33.691Z,21.54
2017-09-21T12:56:35.132Z,21.67
2017-09-21T12:57:36.570Z,21.75
2017-09-21T12:58:38.003Z,22.12
2017-09-21T12:59:39.437Z,21.74
2017-09-21T13:00:40.873Z,22.14
2017-09-21T13:01:42.301Z,22.16
2017-09-21T13:02:43.747Z,22.74
2017-09-21T13:03:45.192Z,23.29
2017-09-21T13:04:46.620Z,24.52
2017-09-21T13:05:48.052Z,26.77
2017-09-21T13:06:49.483Z,28.14
2017-09-21T13:07:50.908Z,29.62
2017-09-21T13:08:52.336Z,30.00
2017-09-21T13:09:53.759Z,29.15
2017-09-21T13:10:55.200Z,30.09
2017-09-21T13:11:56.637Z,31.60